Hurst, Illinois
Current Conditions -  °F | °C
As of 12:52 PM on Sunday 23 Nov 2014 (Local Time) from KMDH Reporting Station
Light Rain Light Rain  
Wind Chill: 55°   Ceiling: 1100
Heat Index: 55°   Visibility: 8mi
Dew Point: 52°   Wind: 12mph
Humidity: 89%   Direction: 140°SE
Pressure: 29.51"   Gusts: NA
Location:  37.83°N, 89.14°W
Report Text: KMDH 231852Z AUTO 14010KT 8SM -RA OVC011 13/11 A2951 RMK AO2 CIG 008V013 SLP993 P0001 T01280111
Loading
Personal Weather Stations






























Interactive Weather Map New forecast layout! Learn more

10-Day Weather Forecast

Advertisements
Track Severe Weather on mobile